Time;durP1;ratioP1;P1;durP2;ratioP2;P2;SDS_P1;SDS_P2;PMS_P1;PMS_P2;Temp;Humidity;BMP_temperature;BMP_pressure;BME280_temperature;BME280_humidity;BME280_pressure;Samples;Min_cycle;Max_cycle;Signal;HPM_P1;HPM_P2
2022/07/28 00:01:20;;;;;;;;;;;;;;;17.34;49.37;101875.22;5003006;28;19932;-85
2022/07/28 00:03:45;;;;;;;;;;;;;;;17.22;51.87;101871.38;5025531;28;19924;-85
2022/07/28 00:06:11;;;;;;;;;;;;;;;17.24;52.15;101866.81;5027803;28;19951;-86
2022/07/28 00:08:36;;;;;;;;;;;;;;;17.26;51.58;101867.59;5024373;28;19960;-86
2022/07/28 00:11:01;;;;;;;;;;;;;;;17.23;51.79;101873.09;5027440;28;20008;-86
2022/07/28 00:13:26;;;;;;;;;;;;;;;17.23;51.05;101873.09;5007664;28;19921;-85
2022/07/28 00:15:52;;;;;;;;;;;;;;;17.21;51.12;101864.31;5023934;28;20557;-86
2022/07/28 00:18:17;;;;;;;;;;;;;;;17.12;53.05;101864.78;5023820;28;19924;-86
2022/07/28 00:20:42;;;;;;;;;;;;;;;17.13;50.95;101868.31;5026880;28;19917;-85
2022/07/28 00:23:07;;;;;;;;;;;;;;;17.08;51.91;101858.72;5028176;28;19924;-87
2022/07/28 00:25:33;;;;;;;;;;;;;;;17.04;53.04;101857.16;5027080;28;19917;-85
2022/07/28 00:27:58;;;;;;;;;;;;;;;16.97;52.10;101860.19;5023333;28;19956;-86
2022/07/28 00:30:23;;;;;;;;;;;;;;;16.90;51.92;101867.69;5025353;28;19929;-86
2022/07/28 00:32:48;;;;;;;;;;;;;;;16.89;52.63;101865.09;5024003;28;20368;-86
2022/07/28 00:35:14;;;;;;;;;;;;;;;16.85;51.71;101859.03;5027860;28;19917;-85
2022/07/28 00:37:39;;;;;;;;;;;;;;;16.81;51.85;101866.31;5028525;28;19943;-86
2022/07/28 00:40:04;;;;;;;;;;;;;;;16.75;51.76;101860.44;5023472;28;20017;-86
2022/07/28 00:42:29;;;;;;;;;;;;;;;16.72;50.84;101853.44;5025493;28;19917;-86
2022/07/28 00:44:55;;;;;;;;;;;;;;;16.64;52.45;101852.03;5029718;28;20428;-85
2022/07/28 00:47:20;;;;;;;;;;;;;;;16.64;52.91;101852.03;5023949;28;20334;-86
2022/07/28 00:49:47;;;;;;;;;;;;;;;16.60;52.03;101848.69;5020665;28;19921;-86
2022/07/28 00:52:12;;;;;;;;;;;;;;;16.62;53.25;101857.47;5026185;28;20447;-86
2022/07/28 00:54:37;;;;;;;;;;;;;;;16.66;52.39;101856.38;5017757;28;19924;-86
2022/07/28 00:57:03;;;;;;;;;;;;;;;16.63;51.65;101853.84;5022002;28;19932;-86
2022/07/28 00:59:29;;;;;;;;;;;;;;;16.57;52.78;101852.34;5023902;28;19959;-85
2022/07/28 01:01:54;;;;;;;;;;;;;;;16.49;52.42;101841.19;5020826;28;19944;-86
2022/07/28 01:04:21;;;;;;;;;;;;;;;16.45;53.23;101833.38;5027585;28;19925;-86
2022/07/28 01:06:55;;;;;;;;;;;;;;;16.39;50.37;101831.03;5024901;28;20012;-85
2022/07/28 01:09:30;;;;;;;;;;;;;;;16.28;51.88;101839.56;5024955;28;19994;-85
2022/07/28 01:12:07;;;;;;;;;;;;;;;16.21;53.39;101843.44;5024359;28;20013;-85
2022/07/28 01:14:38;;;;;;;;;;;;;;;16.17;52.07;101842.72;5022059;28;19964;-85
2022/07/28 01:17:03;;;;;;;;;;;;;;;16.02;53.69;101843.47;5027798;28;19921;-85
2022/07/28 01:19:37;;;;;;;;;;;;;;;16.04;52.41;101836.22;5024864;28;19924;-85
2022/07/28 01:22:04;;;;;;;;;;;;;;;16.02;52.17;101840.78;5021156;28;19920;-86
2022/07/28 01:24:32;;;;;;;;;;;;;;;15.97;51.29;101841.00;5022100;28;20364;-86
2022/07/28 01:27:06;;;;;;;;;;;;;;;15.95;51.98;101836.69;5026924;28;19921;-86
2022/07/28 01:29:40;;;;;;;;;;;;;;;15.90;53.15;101841.34;5025471;28;20384;-85
2022/07/28 01:32:09;;;;;;;;;;;;;;;15.88;52.54;101835.25;5022887;28;20063;-85
2022/07/28 01:34:54;;;;;;;;;;;;;;;15.79;52.48;101832.06;5003508;28;19991;-86
2022/07/28 01:37:23;;;;;;;;;;;;;;;15.75;52.26;101835.78;5022673;28;20467;-86
2022/07/28 01:39:52;;;;;;;;;;;;;;;15.67;52.04;101834.44;5025512;28;19928;-86
2022/07/28 01:42:20;;;;;;;;;;;;;;;15.60;52.76;101839.13;5025800;28;19960;-85
2022/07/28 01:44:47;;;;;;;;;;;;;;;15.54;53.23;101826.09;5023894;28;19933;-85
2022/07/28 01:47:13;;;;;;;;;;;;;;;15.52;52.53;101826.13;5024740;28;19921;-86
2022/07/28 01:49:40;;;;;;;;;;;;;;;15.53;52.00;101825.22;5022645;28;19921;-86
2022/07/28 01:52:06;;;;;;;;;;;;;;;15.49;53.14;101822.78;5023497;28;19967;-86
2022/07/28 01:54:32;;;;;;;;;;;;;;;15.43;52.55;101817.69;5024350;28;20011;-86
2022/07/28 01:56:59;;;;;;;;;;;;;;;15.29;53.47;101819.19;5024853;28;19937;-85
2022/07/28 01:59:24;;;;;;;;;;;;;;;15.24;53.32;101817.66;5005476;28;19921;-85
2022/07/28 02:01:51;;;;;;;;;;;;;;;15.22;53.08;101812.41;5022915;28;20114;-85
2022/07/28 02:04:18;;;;;;;;;;;;;;;15.25;54.63;101816.75;5025799;28;19913;-85
2022/07/28 02:06:45;;;;;;;;;;;;;;;15.22;55.91;101814.19;5013489;28;20031;-85
2022/07/28 02:09:11;;;;;;;;;;;;;;;15.27;52.70;101802.41;5025526;28;19921;-85
2022/07/28 02:11:40;;;;;;;;;;;;;;;15.22;53.93;101803.53;5023998;28;20380;-85
2022/07/28 02:14:12;;;;;;;;;;;;;;;15.20;53.57;101806.28;5023298;28;19925;-86
2022/07/28 02:16:40;;;;;;;;;;;;;;;15.14;54.89;101806.53;5020468;28;20500;-85
2022/07/28 02:19:06;;;;;;;;;;;;;;;15.13;53.97;101802.16;5022429;28;19917;-85
2022/07/28 02:21:33;;;;;;;;;;;;;;;15.11;55.07;101803.13;5024763;28;20407;-85
2022/07/28 02:23:58;;;;;;;;;;;;;;;15.10;55.18;101804.06;5024658;28;20066;-85
2022/07/28 02:26:30;;;;;;;;;;;;;;;15.03;54.30;101798.16;5024794;28;19975;-86
2022/07/28 02:28:58;;;;;;;;;;;;;;;14.99;55.20;101801.88;5017689;28;19925;-85
2022/07/28 02:31:26;;;;;;;;;;;;;;;14.98;56.97;101806.34;5025458;28;20503;-85
2022/07/28 02:33:54;;;;;;;;;;;;;;;15.04;55.09;101798.06;5006932;28;19975;-85
2022/07/28 02:36:24;;;;;;;;;;;;;;;15.05;54.85;101790.94;5030497;28;20451;-85
2022/07/28 02:38:53;;;;;;;;;;;;;;;15.02;55.61;101796.44;5026389;28;19932;-85
2022/07/28 02:41:25;;;;;;;;;;;;;;;15.00;53.66;101806.25;5023366;28;20372;-85
2022/07/28 02:43:52;;;;;;;;;;;;;;;14.90;54.72;101797.81;5028765;28;19917;-85
2022/07/28 02:46:19;;;;;;;;;;;;;;;14.89;54.40;101803.22;5014445;28;19916;-86
2022/07/28 02:48:48;;;;;;;;;;;;;;;14.91;55.15;101802.19;5026864;28;19917;-85
2022/07/28 02:51:15;;;;;;;;;;;;;;;14.89;53.73;101809.41;5027652;28;20395;-85
2022/07/28 02:53:40;;;;;;;;;;;;;;;14.86;54.68;101804.19;5030340;28;19917;-85
2022/07/28 02:56:07;;;;;;;;;;;;;;;14.83;54.97;101795.47;5025825;28;19928;-85
2022/07/28 02:58:33;;;;;;;;;;;;;;;14.79;54.58;101800.94;5026949;28;19925;-85
2022/07/28 03:00:59;;;;;;;;;;;;;;;14.72;53.40;101795.94;5027581;28;19918;-86
2022/07/28 03:03:24;;;;;;;;;;;;;;;14.63;55.82;101799.84;5027745;28;19964;-85
2022/07/28 03:05:49;;;;;;;;;;;;;;;14.67;55.25;101801.44;5011648;28;20022;-86
2022/07/28 03:08:15;;;;;;;;;;;;;;;14.70;53.60;101793.34;5026153;28;20379;-85
2022/07/28 03:10:41;;;;;;;;;;;;;;;14.68;54.33;101803.16;5028500;28;20303;-86
2022/07/28 03:13:06;;;;;;;;;;;;;;;14.68;54.78;101792.53;5025122;28;20423;-85
2022/07/28 03:15:32;;;;;;;;;;;;;;;14.70;53.76;101796.00;5010121;28;20285;-86
2022/07/28 03:17:58;;;;;;;;;;;;;;;14.60;53.74;101797.31;5027309;28;19932;-86
2022/07/28 03:20:23;;;;;;;;;;;;;;;14.44;54.45;101794.38;5030439;28;19988;-86
2022/07/28 03:22:48;;;;;;;;;;;;;;;14.39;55.14;101798.16;5026872;28;20020;-85
2022/07/28 03:25:15;;;;;;;;;;;;;;;14.43;54.47;101800.63;5026866;28;20381;-85
2022/07/28 03:27:43;;;;;;;;;;;;;;;14.45;53.51;101804.09;5028173;28;19917;-85
2022/07/28 03:30:11;;;;;;;;;;;;;;;14.34;55.06;101802.81;5021985;28;19929;-85
2022/07/28 03:32:38;;;;;;;;;;;;;;;14.40;56.12;101807.88;5025530;28;19926;-85
2022/07/28 03:35:04;;;;;;;;;;;;;;;14.43;55.00;101799.78;5030180;28;20020;-85
2022/07/28 03:37:37;;;;;;;;;;;;;;;14.42;54.57;101801.56;5026839;28;20007;-86
2022/07/28 03:40:03;;;;;;;;;;;;;;;14.36;55.56;101804.50;5007071;28;20494;-85
2022/07/28 03:42:29;;;;;;;;;;;;;;;14.37;56.87;101803.56;5026420;28;19964;-85
2022/07/28 03:44:55;;;;;;;;;;;;;;;14.40;57.44;101802.53;5023690;28;20012;-85
2022/07/28 03:47:21;;;;;;;;;;;;;;;14.40;57.22;101806.06;5026970;28;19916;-85
2022/07/28 03:49:46;;;;;;;;;;;;;;;14.40;57.70;101808.72;5027249;28;19928;-85
2022/07/28 03:52:12;;;;;;;;;;;;;;;14.38;58.07;101815.91;5028609;28;19917;-85
2022/07/28 03:54:37;;;;;;;;;;;;;;;14.36;57.29;101814.25;5023512;28;19948;-85
2022/07/28 03:57:02;;;;;;;;;;;;;;;14.34;56.47;101814.31;5025229;28;19917;-85
2022/07/28 03:59:27;;;;;;;;;;;;;;;14.29;56.94;101808.31;5028032;28;19936;-86
2022/07/28 04:01:53;;;;;;;;;;;;;;;14.27;58.06;101802.19;5024250;28;20313;-85
2022/07/28 04:04:18;;;;;;;;;;;;;;;14.27;57.62;101802.19;5025996;28;20364;-85
2022/07/28 04:06:44;;;;;;;;;;;;;;;14.25;58.35;101804.91;5026218;28;19918;-86
2022/07/28 04:09:09;;;;;;;;;;;;;;;14.24;58.85;101800.50;5022889;28;20008;-86
2022/07/28 04:11:34;;;;;;;;;;;;;;;14.24;59.36;101791.66;5007708;28;19925;-86
2022/07/28 04:13:59;;;;;;;;;;;;;;;14.23;58.97;101797.94;5010447;28;20776;-85
2022/07/28 04:16:24;;;;;;;;;;;;;;;14.21;58.20;101792.66;5021992;28;20337;-85
2022/07/28 04:18:49;;;;;;;;;;;;;;;14.21;57.75;101797.97;5022193;28;19917;-85
2022/07/28 04:21:15;;;;;;;;;;;;;;;14.21;58.15;101792.66;5029301;28;19921;-86
2022/07/28 04:23:40;;;;;;;;;;;;;;;14.18;58.01;101803.44;5024524;28;19924;-85
2022/07/28 04:26:06;;;;;;;;;;;;;;;14.19;58.52;101793.66;5024778;28;19924;-86
2022/07/28 04:28:32;;;;;;;;;;;;;;;14.18;58.34;101800.78;5025336;28;19924;-86
2022/07/28 04:30:57;;;;;;;;;;;;;;;14.19;56.59;101797.19;5007974;28;20503;-85
2022/07/28 04:33:23;;;;;;;;;;;;;;;14.17;59.34;101795.50;5004911;28;19982;-86
2022/07/28 04:35:51;;;;;;;;;;;;;;;14.19;58.75;101796.31;5026582;28;19971;-85
2022/07/28 04:38:16;;;;;;;;;;;;;;;14.18;57.82;101791.94;5023229;28;20402;-86
2022/07/28 04:40:42;;;;;;;;;;;;;;;14.19;58.08;101791.00;5008162;28;19917;-85
2022/07/28 04:43:09;;;;;;;;;;;;;;;14.19;59.31;101797.19;5025086;28;19921;-85
2022/07/28 04:45:34;;;;;;;;;;;;;;;14.19;57.42;101797.19;5027778;28;20024;-85
2022/07/28 04:47:59;;;;;;;;;;;;;;;14.26;56.67;101796.00;5025278;28;20379;-86
2022/07/28 04:50:24;;;;;;;;;;;;;;;14.28;57.35;101795.94;5025183;28;19925;-85
2022/07/28 04:52:49;;;;;;;;;;;;;;;14.25;58.70;101791.59;5028154;28;19921;-85
2022/07/28 04:55:15;;;;;;;;;;;;;;;14.27;58.67;101796.88;5021992;28;19925;-85
2022/07/28 04:57:41;;;;;;;;;;;;;;;14.27;57.34;101791.56;5007089;28;19917;-85
2022/07/28 05:00:13;;;;;;;;;;;;;;;14.30;57.65;101791.41;5026307;28;19982;-86
2022/07/28 05:02:39;;;;;;;;;;;;;;;14.34;59.60;101793.03;5025328;28;19921;-85
2022/07/28 05:05:04;;;;;;;;;;;;;;;14.37;59.19;101792.06;5005871;28;20011;-85
2022/07/28 05:07:30;;;;;;;;;;;;;;;14.40;58.16;101799.88;5026587;28;20016;-85
2022/07/28 05:09:55;;;;;;;;;;;;;;;14.41;58.58;101789.22;5025135;28;19921;-85
2022/07/28 05:12:20;;;;;;;;;;;;;;;14.40;59.03;101792.78;5026836;28;19917;-85
2022/07/28 05:14:45;;;;;;;;;;;;;;;14.45;59.50;101792.59;5026871;28;20345;-85
2022/07/28 05:17:11;;;;;;;;;;;;;;;14.54;59.93;101792.22;5022197;28;19924;-85
2022/07/28 05:19:36;;;;;;;;;;;;;;;14.59;59.27;101800.03;5028506;28;19920;-86
2022/07/28 05:22:01;;;;;;;;;;;;;;;14.61;59.02;101791.06;5026390;28;19917;-85
2022/07/28 05:24:26;;;;;;;;;;;;;;;14.68;59.44;101796.97;5002384;28;20370;-85
2022/07/28 05:26:52;;;;;;;;;;;;;;;14.74;59.30;101792.28;5024799;28;19924;-86
2022/07/28 05:29:17;;;;;;;;;;;;;;;14.79;60.14;101792.09;5022710;28;19921;-85
2022/07/28 05:31:42;;;;;;;;;;;;;;;14.87;59.10;101795.28;5022775;28;19924;-85
2022/07/28 05:34:07;;;;;;;;;;;;;;;14.97;59.09;101798.44;5027861;28;20392;-86
2022/07/28 05:36:34;;;;;;;;;;;;;;;15.08;59.72;101801.47;5023149;28;19917;-85
2022/07/28 05:38:59;;;;;;;;;;;;;;;15.21;58.45;101804.47;5033649;28;20432;-85
2022/07/28 05:41:24;;;;;;;;;;;;;;;15.32;57.91;101807.53;5024724;28;20042;-85
2022/07/28 05:43:50;;;;;;;;;;;;;;;15.45;58.04;101816.69;5023831;28;19918;-86
2022/07/28 05:46:15;;;;;;;;;;;;;;;15.59;58.35;101807.22;5025727;28;19917;-85
2022/07/28 05:48:40;;;;;;;;;;;;;;;15.71;57.94;101804.00;5026638;28;20015;-85
2022/07/28 05:51:05;;;;;;;;;;;;;;;15.84;57.32;101806.97;5008377;28;20319;-85
2022/07/28 05:53:30;;;;;;;;;;;;;;;15.91;56.25;101801.28;5025850;28;21010;-85
2022/07/28 05:55:56;;;;;;;;;;;;;;;15.97;57.40;101814.34;5025807;28;20410;-85
2022/07/28 05:58:22;;;;;;;;;;;;;;;16.01;56.86;101804.41;5007177;28;19924;-85
2022/07/28 06:00:47;;;;;;;;;;;;;;;16.05;56.80;101808.66;5019459;28;19968;-85
2022/07/28 06:03:13;;;;;;;;;;;;;;;16.17;56.70;101804.50;5023714;28;19917;-85
2022/07/28 06:05:38;;;;;;;;;;;;;;;16.19;56.94;101800.84;5024149;28;19917;-85
2022/07/28 06:08:03;;;;;;;;;;;;;;;16.27;56.35;101812.03;5007866;28;19997;-85
2022/07/28 06:13:13;;;;;;;;;;;;;;;16.49;55.51;101806.47;5018204;28;20048;-85
2022/07/28 06:15:38;;;;;;;;;;;;;;;16.63;56.03;101804.94;5005304;28;19921;-85
2022/07/28 06:18:04;;;;;;;;;;;;;;;16.77;54.55;101811.34;5024788;28;19920;-85
2022/07/28 06:20:29;;;;;;;;;;;;;;;16.83;55.04;101810.16;5026790;28;19964;-86
2022/07/28 06:22:54;;;;;;;;;;;;;;;16.83;53.68;101816.38;5026027;28;20012;-86
2022/07/28 06:25:21;;;;;;;;;;;;;;;16.82;54.47;101814.63;5023169;28;19925;-85
2022/07/28 06:27:50;;;;;;;;;;;;;;;16.88;55.01;101805.47;5017534;28;19927;-86
2022/07/28 06:30:16;;;;;;;;;;;;;;;16.94;54.80;101805.13;5015035;28;19977;-86
2022/07/28 06:32:41;;;;;;;;;;;;;;;17.05;55.39;101802.75;5000999;28;19994;-85
2022/07/28 06:35:07;;;;;;;;;;;;;;;17.12;52.96;101810.47;5024388;28;19918;-85
2022/07/28 06:37:32;;;;;;;;;;;;;;;17.20;54.64;101805.56;5027569;28;20008;-85
2022/07/28 06:39:57;;;;;;;;;;;;;;;17.24;54.18;101802.66;5024181;28;19972;-87
2022/07/28 06:42:22;;;;;;;;;;;;;;;17.27;54.33;101799.84;5012355;28;19917;-85
2022/07/28 06:44:49;;;;;;;;;;;;;;;17.35;54.57;101810.13;5023725;28;19949;-86
2022/07/28 06:47:14;;;;;;;;;;;;;;;17.46;53.45;101802.41;5013406;28;19917;-86
2022/07/28 06:49:39;;;;;;;;;;;;;;;17.59;53.35;101806.13;5002177;28;19922;-86
2022/07/28 06:52:05;;;;;;;;;;;;;;;17.77;53.47;101798.09;5024494;28;20920;-86
2022/07/28 06:54:30;;;;;;;;;;;;;;;17.98;53.08;101802.25;5026915;28;19917;-85
2022/07/28 06:56:56;;;;;;;;;;;;;;;18.21;52.63;101806.31;5027211;28;19999;-86
2022/07/28 06:59:21;;;;;;;;;;;;;;;18.32;52.17;101805.69;5025407;28;19921;-86
2022/07/28 07:01:46;;;;;;;;;;;;;;;18.43;52.07;101811.31;5025449;28;20206;-85
2022/07/28 07:04:13;;;;;;;;;;;;;;;18.58;51.86;101805.06;5019600;28;20816;-86
2022/07/28 07:06:38;;;;;;;;;;;;;;;18.77;51.93;101809.38;5005827;28;20341;-86
2022/07/28 07:09:03;;;;;;;;;;;;;;;18.96;50.88;101814.50;5029555;28;19925;-85
2022/07/28 07:11:29;;;;;;;;;;;;;;;19.03;51.85;101806.00;5010234;28;20407;-86
2022/07/28 07:13:54;;;;;;;;;;;;;;;19.18;50.64;101801.53;5003943;28;19917;-86
2022/07/28 07:16:19;;;;;;;;;;;;;;;19.28;49.66;101802.69;5020109;28;19928;-86
2022/07/28 07:18:47;;;;;;;;;;;;;;;19.35;50.21;101804.03;5026513;28;19968;-86
2022/07/28 07:21:12;;;;;;;;;;;;;;;19.46;49.66;101810.56;5028568;28;19947;-87
2022/07/28 07:23:37;;;;;;;;;;;;;;;19.48;49.79;101801.44;5023385;28;19925;-86
2022/07/28 07:26:02;;;;;;;;;;;;;;;19.50;49.99;101812.09;5012409;28;19921;-87
2022/07/28 07:28:28;;;;;;;;;;;;;;;19.51;49.53;101806.63;5026024;28;20288;-87
2022/07/28 07:30:53;;;;;;;;;;;;;;;19.52;49.57;101805.66;5021651;28;19925;-86
2022/07/28 07:33:18;;;;;;;;;;;;;;;19.53;49.30;101811.88;5031546;28;19921;-86
2022/07/28 07:35:44;;;;;;;;;;;;;;;19.49;48.86;101805.88;5026555;28;19917;-87
2022/07/28 07:38:09;;;;;;;;;;;;;;;19.59;49.57;101800.78;5029086;28;19928;-87
2022/07/28 07:40:34;;;;;;;;;;;;;;;19.94;49.39;101800.38;5026837;28;19963;-87
2022/07/28 07:42:59;;;;;;;;;;;;;;;20.47;48.09;101805.00;5011844;28;20130;-87
2022/07/28 07:45:25;;;;;;;;;;;;;;;20.68;47.17;101799.13;5020166;28;19979;-88
2022/07/28 07:47:50;;;;;;;;;;;;;;;20.76;47.08;101804.84;5005304;28;19936;-87
2022/07/28 07:50:15;;;;;;;;;;;;;;;20.72;47.18;101797.97;5026906;28;19921;-87
2022/07/28 07:52:41;;;;;;;;;;;;;;;20.93;46.42;101795.63;5031706;28;19924;-87
2022/07/28 07:55:06;;;;;;;;;;;;;;;20.96;45.97;101792.75;5026425;28;20004;-87
2022/07/28 07:57:31;;;;;;;;;;;;;;;21.22;45.35;101791.81;5011179;28;19952;-87
2022/07/28 07:59:56;;;;;;;;;;;;;;;21.96;44.94;101791.94;5020725;28;19917;-86
2022/07/28 08:02:22;;;;;;;;;;;;;;;22.18;43.75;101788.56;5014023;28;19917;-86
2022/07/28 08:04:47;;;;;;;;;;;;;;;22.38;43.81;101788.81;5027377;28;20358;-87
2022/07/28 08:07:12;;;;;;;;;;;;;;;22.80;42.85;101786.53;5025464;28;19917;-87
2022/07/28 08:09:37;;;;;;;;;;;;;;;23.21;42.12;101793.25;5019005;28;19933;-87
2022/07/28 08:12:03;;;;;;;;;;;;;;;23.71;41.28;101782.16;5028916;28;19928;-88
2022/07/28 08:14:28;;;;;;;;;;;;;;;24.22;41.16;101782.44;5022593;28;19924;-88
2022/07/28 08:16:55;;;;;;;;;;;;;;;24.49;38.07;101787.44;5021606;28;19920;-88
2022/07/28 08:19:20;;;;;;;;;;;;;;;24.31;39.18;101783.53;5026456;28;19921;-88
2022/07/28 08:21:45;;;;;;;;;;;;;;;24.76;38.87;101778.84;5021025;28;19982;-87
2022/07/28 08:24:11;;;;;;;;;;;;;;;24.97;38.17;101786.94;5027525;28;20016;-88
2022/07/28 08:26:36;;;;;;;;;;;;;;;25.15;38.47;101784.53;5028592;28;19917;-88
2022/07/28 08:29:01;;;;;;;;;;;;;;;25.61;37.13;101784.03;5020423;28;19946;-89
2022/07/28 08:31:26;;;;;;;;;;;;;;;26.14;37.35;101772.94;5026440;28;20000;-89
2022/07/28 08:33:52;;;;;;;;;;;;;;;26.68;36.71;101771.59;5020198;28;19921;-89
2022/07/28 08:36:17;;;;;;;;;;;;;;;27.21;34.54;101781.09;5022429;28;19924;-89
2022/07/28 08:38:42;;;;;;;;;;;;;;;27.51;34.15;101777.25;5028434;28;19952;-89
2022/07/28 08:41:11;;;;;;;;;;;;;;;27.93;33.34;101783.13;5028015;28;19926;-88
2022/07/28 08:43:38;;;;;;;;;;;;;;;28.38;33.53;101770.50;5022957;28;19909;-89
2022/07/28 08:46:05;;;;;;;;;;;;;;;28.42;32.48;101769.19;5030015;28;19956;-90
2022/07/28 08:48:31;;;;;;;;;;;;;;;28.46;32.02;101782.34;5023219;28;19936;-90
2022/07/28 08:51:00;;;;;;;;;;;;;;;28.72;32.76;101771.53;5021710;28;19976;-90
2022/07/28 08:53:26;;;;;;;;;;;;;;;29.09;31.68;101777.75;5028631;28;20379;-89
2022/07/28 08:55:52;;;;;;;;;;;;;;;29.60;32.83;101779.59;5025136;28;19917;-90
2022/07/28 08:58:17;;;;;;;;;;;;;;;29.95;30.64;101780.44;5027926;28;19917;-90
2022/07/28 09:00:43;;;;;;;;;;;;;;;30.21;32.16;101773.03;5024225;28;19917;-90
2022/07/28 09:03:09;;;;;;;;;;;;;;;30.30;30.42;101773.88;5026085;28;19921;-90
2022/07/28 09:05:35;;;;;;;;;;;;;;;30.71;31.08;101773.97;5019230;28;19921;-89
2022/07/28 09:08:01;;;;;;;;;;;;;;;31.00;29.78;101768.78;5022674;28;19924;-89
2022/07/28 09:10:26;;;;;;;;;;;;;;;31.42;29.18;101767.72;5023168;28;19925;-90
2022/07/28 09:12:52;;;;;;;;;;;;;;;31.58;27.03;101761.34;5026218;28;19936;-89
2022/07/28 09:15:17;;;;;;;;;;;;;;;31.55;29.45;101763.56;5025780;28;19925;-89
2022/07/28 09:17:42;;;;;;;;;;;;;;;31.35;28.88;101764.00;5027622;28;19913;-89
2022/07/28 09:20:08;;;;;;;;;;;;;;;30.99;27.86;101758.91;5025732;28;19925;-87
2022/07/28 09:22:34;;;;;;;;;;;;;;;30.77;29.98;101739.66;5024621;28;19944;-88
2022/07/28 09:25:03;;;;;;;;;;;;;;;30.74;27.89;101733.53;5020444;28;20396;-88
2022/07/28 09:27:43;;;;;;;;;;;;;;;30.68;27.99;101734.19;5023969;28;19971;-88
2022/07/28 09:30:08;;;;;;;;;;;;;;;30.42;28.50;101731.63;5025666;28;20464;-88
2022/07/28 09:32:33;;;;;;;;;;;;;;;30.19;29.78;101728.69;5023942;28;20029;-88
2022/07/28 09:34:59;;;;;;;;;;;;;;;29.79;31.25;101732.16;5026278;28;20304;-88
2022/07/28 09:37:25;;;;;;;;;;;;;;;29.80;29.36;101724.81;5023536;28;20014;-87
2022/07/28 09:39:51;;;;;;;;;;;;;;;29.87;30.71;101729.47;5021686;28;19985;-87
2022/07/28 09:42:17;;;;;;;;;;;;;;;29.77;30.10;101723.28;5021129;28;20122;-87
2022/07/28 09:44:43;;;;;;;;;;;;;;;29.49;28.65;101720.78;5020359;28;19972;-86
2022/07/28 09:47:20;;;;;;;;;;;;;;;29.15;29.42;101720.78;5022182;28;20012;-86
2022/07/28 09:49:45;;;;;;;;;;;;;;;29.17;29.70;101709.72;5023411;28;20961;-87
2022/07/28 09:52:10;;;;;;;;;;;;;;;29.09;29.39;101706.94;5024846;28;20023;-86
2022/07/28 09:54:36;;;;;;;;;;;;;;;28.88;29.85;101705.44;5008822;28;19912;-86
2022/07/28 09:57:01;;;;;;;;;;;;;;;28.84;29.81;101717.66;5026175;28;19928;-86
2022/07/28 09:59:38;;;;;;;;;;;;;;;28.96;31.13;101719.16;5023399;28;19913;-86
2022/07/28 10:02:04;;;;;;;;;;;;;;;29.06;31.45;101720.91;5021392;28;19917;-86
2022/07/28 10:04:36;;;;;;;;;;;;;;;29.29;28.96;101718.47;5019788;28;19913;-86
2022/07/28 10:07:04;;;;;;;;;;;;;;;29.44;28.53;101716.84;5020258;28;19964;-87
2022/07/28 10:09:29;;;;;;;;;;;;;;;29.53;29.17;101715.00;5024214;28;19908;-87
2022/07/28 10:12:09;;;;;;;;;;;;;;;29.68;29.24;101706.06;5024593;28;20175;-88
2022/07/28 10:14:34;;;;;;;;;;;;;;;29.74;28.83;101707.25;5011584;28;19917;-87
2022/07/28 10:17:00;;;;;;;;;;;;;;;29.70;27.35;101709.50;5021715;28;19917;-87
2022/07/28 10:19:25;;;;;;;;;;;;;;;29.71;30.09;101697.56;5018771;28;19974;-87
2022/07/28 10:21:53;;;;;;;;;;;;;;;29.59;29.10;101707.06;5030752;28;19916;-87
2022/07/28 10:24:23;;;;;;;;;;;;;;;29.74;30.39;101713.56;5021562;28;19925;-87
2022/07/28 10:26:49;;;;;;;;;;;;;;;29.97;30.65;101699.31;5022627;28;20514;-87
2022/07/28 10:29:15;;;;;;;;;;;;;;;29.88;29.21;101705.75;5026480;28;19921;-86
2022/07/28 10:31:47;;;;;;;;;;;;;;;29.77;29.51;101700.63;5026105;28;19921;-87
2022/07/28 10:34:22;;;;;;;;;;;;;;;29.92;28.41;101698.97;5021561;28;20010;-86
2022/07/28 10:36:51;;;;;;;;;;;;;;;29.72;27.98;101695.69;5008927;28;19913;-87
2022/07/28 10:39:17;;;;;;;;;;;;;;;29.81;26.42;101693.84;5007427;28;19936;-86
2022/07/28 10:41:43;;;;;;;;;;;;;;;29.68;27.34;101692.44;5019507;28;20144;-85
2022/07/28 10:44:12;;;;;;;;;;;;;;;29.84;27.21;101697.06;5019811;28;20376;-86
2022/07/28 10:46:38;;;;;;;;;;;;;;;30.03;27.09;101697.78;5022385;28;20371;-85
2022/07/28 10:49:03;;;;;;;;;;;;;;;30.26;27.32;101701.59;5011735;28;19917;-86
2022/07/28 10:51:29;;;;;;;;;;;;;;;30.35;26.84;101695.09;5023416;28;20142;-87
2022/07/28 10:54:07;;;;;;;;;;;;;;;30.40;27.34;101686.41;5019812;28;20368;-85
2022/07/28 10:56:32;;;;;;;;;;;;;;;30.42;26.04;101690.69;5022157;28;19917;-86
2022/07/28 10:59:06;;;;;;;;;;;;;;;30.51;26.36;101694.28;5025854;28;20303;-86
2022/07/28 11:01:33;;;;;;;;;;;;;;;30.24;26.99;101679.94;5026383;28;19925;-86
2022/07/28 11:03:58;;;;;;;;;;;;;;;29.85;28.76;101693.34;5012785;28;20438;-85
2022/07/28 11:06:25;;;;;;;;;;;;;;;29.69;29.23;101679.66;5011709;28;19952;-86
2022/07/28 11:08:51;;;;;;;;;;;;;;;30.10;28.89;101691.50;5026201;28;19918;-85
2022/07/28 11:11:35;;;;;;;;;;;;;;;30.32;28.71;101684.56;5034841;28;20058;-87
2022/07/28 11:14:24;;;;;;;;;;;;;;;30.63;28.37;101681.97;5030012;28;19965;-87
2022/07/28 11:16:59;;;;;;;;;;;;;;;30.89;27.34;101675.47;5013700;28;20344;-85
2022/07/28 11:19:24;;;;;;;;;;;;;;;31.06;27.31;101668.94;5029731;28;19974;-85
2022/07/28 11:22:08;;;;;;;;;;;;;;;31.04;28.27;101672.84;5011606;28;20313;-86
2022/07/28 11:24:56;;;;;;;;;;;;;;;31.33;27.28;101664.91;5022562;28;19917;-85
2022/07/28 11:27:40;;;;;;;;;;;;;;;31.33;26.92;101673.09;5000017;28;20376;-85
2022/07/28 11:30:10;;;;;;;;;;;;;;;31.35;26.22;101657.41;5025925;28;20430;-85
2022/07/28 11:32:58;;;;;;;;;;;;;;;31.21;26.24;101663.59;5036113;28;19980;-86
2022/07/28 11:35:23;;;;;;;;;;;;;;;31.34;25.21;101663.91;5020782;28;20389;-85
2022/07/28 11:38:01;;;;;;;;;;;;;;;31.61;26.13;101664.44;5025597;28;20311;-85
2022/07/28 11:40:37;;;;;;;;;;;;;;;31.67;25.90;101655.53;5017930;28;19929;-85
2022/07/28 11:46:09;;;;;;;;;;;;;;;32.20;23.28;101648.31;5004128;28;19975;-85
2022/07/28 11:48:35;;;;;;;;;;;;;;;32.28;23.64;101636.47;5001321;28;19917;-85
2022/07/28 11:51:03;;;;;;;;;;;;;;;32.23;23.48;101645.22;5005486;28;20607;-86
2022/07/28 11:53:35;;;;;;;;;;;;;;;32.20;25.16;101648.31;5014312;28;19921;-86
2022/07/28 11:56:04;;;;;;;;;;;;;;;32.34;25.62;101639.31;5006868;28;19922;-86
2022/07/28 11:58:29;;;;;;;;;;;;;;;32.28;24.05;101637.31;5004415;28;19941;-86
2022/07/28 12:01:11;;;;;;;;;;;;;;;32.05;25.96;101634.59;5002110;28;19941;-86
2022/07/28 12:03:39;;;;;;;;;;;;;;;31.80;23.60;101638.50;5006924;28;20003;-86
2022/07/28 12:06:04;;;;;;;;;;;;;;;31.92;23.61;101639.84;5006448;28;19925;-85
2022/07/28 12:08:48;;;;;;;;;;;;;;;31.82;23.78;101631.00;5000775;28;19922;-85
2022/07/28 12:11:13;;;;;;;;;;;;;;;31.97;23.84;101632.78;5004277;28;19929;-85
2022/07/28 12:13:38;;;;;;;;;;;;;;;32.14;25.67;101622.56;5004343;28;19925;-85
2022/07/28 12:16:03;;;;;;;;;;;;;;;31.84;24.83;101624.31;5004529;28;20459;-86
2022/07/28 12:18:29;;;;;;;;;;;;;;;31.77;25.00;101625.22;5001099;28;19924;-85
2022/07/28 12:20:54;;;;;;;;;;;;;;;32.02;25.15;101623.16;5007933;28;19972;-85
2022/07/28 12:23:27;;;;;;;;;;;;;;;31.95;25.21;101620.31;5003544;28;20016;-85
2022/07/28 12:25:52;;;;;;;;;;;;;;;32.16;24.15;101625.94;5005846;28;20404;-86
2022/07/28 12:28:18;;;;;;;;;;;;;;;32.25;22.07;101619.38;5007380;28;19956;-85
2022/07/28 12:30:43;;;;;;;;;;;;;;;32.18;22.69;101617.56;5004966;28;20320;-85
2022/07/28 12:33:22;;;;;;;;;;;;;;;32.17;24.38;101621.31;5006984;28;19925;-85
2022/07/28 12:35:49;;;;;;;;;;;;;;;32.71;23.78;101613.78;5001536;28;20292;-85
2022/07/28 12:38:14;;;;;;;;;;;;;;;32.76;23.04;101610.50;5017221;28;20745;-85
2022/07/28 12:40:39;;;;;;;;;;;;;;;32.45;24.50;101606.03;5025777;28;19998;-85